Date,TemperatureHighF,TemperatureAvgF,TemperatureLowF,DewpointHighF,DewpointAvgF,DewpointLowF,HumidityHigh,HumidityAvg,HumidityLow,PressureMaxIn,PressureMinIn,WindSpeedMaxMPH,WindSpeedAvgMPH,GustSpeedMaxMPH,PrecipitationSumIn
2013-7-1,102.0,91.4,68.4,72.9,67.6,60.4,78,47,33,29.81,29.75,2,0,5,0.02
2013-7-2,99.5,89.4,76.5,73.1,66.8,59.0,69,48,34,29.83,29.77,3,2,8,0.00
2013-7-3,101.8,92.2,77.8,75.4,69.9,62.7,65,49,38,29.85,29.68,2,0,4,0.00
2013-7-4,105.1,93.9,75.4,74.5,69.0,58.1,66,46,30,29.72,29.57,3,0,6,0.00
2013-7-5,83.8,76.8,66.5,62.0,58.7,55.1,68,54,44,29.71,29.63,5,2,9,0.00
2013-7-6,86.2,78.5,67.2,63.0,59.7,55.0,70,53,42,29.76,29.67,2,1,6,0.00
2013-7-7,91.4,81.6,64.4,66.4,56.4,44.6,74,45,20,29.80,29.72,2,0,5,0.00
2013-7-8,92.3,82.1,64.5,63.2,55.5,46.3,70,43,21,29.91,29.86,2,0,4,0.00
2013-7-9,98.0,89.1,68.8,65.2,57.9,50.6,66,37,21,30.01,29.87,1,0,4,0.00
2013-7-10,95.0,84.9,65.7,66.6,59.0,53.1,67,44,27,29.92,29.80,2,1,6,0.00
2013-7-11,86.6,77.0,60.0,61.1,56.4,52.3,76,50,33,29.89,29.79,3,1,10,0.00
2013-7-12,87.4,75.1,58.4,64.9,58.1,52.1,84,57,35,29.91,29.80,2,0,5,0.00
2013-7-13,92.9,84.1,69.0,65.0,56.9,48.0,62,42,22,29.93,29.83,1,0,4,0.00
2013-7-14,91.7,84.4,68.5,65.1,59.6,54.4,63,44,31,29.95,29.81,2,0,5,0.00
2013-7-15,83.8,74.0,60.7,61.8,57.1,51.6,73,57,44,29.85,29.73,4,1,9,0.00
2013-7-16,78.5,71.0,59.3,59.7,56.1,51.8,77,60,48,29.94,29.88,5,2,13,0.00
2013-7-17,89.1,80.7,63.4,62.6,59.0,54.3,77,49,31,30.08,29.96,1,0,5,0.00
2013-7-18,93.8,82.6,62.6,66.2,59.4,54.6,78,48,28,30.02,29.86,2,0,6,0.02
2013-7-19,96.2,83.5,58.7,67.5,61.7,54.5,86,50,29,29.91,29.73,2,0,4,0.00
2013-7-20,95.8,84.2,68.2,69.0,63.3,56.1,73,51,33,29.80,29.63,2,0,5,0.00
2013-7-21,92.5,84.0,72.2,66.2,61.6,54.5,64,48,39,29.77,29.68,3,1,9,0.00
2013-7-22,88.6,81.6,72.0,61.9,56.8,49.8,62,43,31,29.92,29.84,4,1,7,0.00
2013-7-23,89.0,81.9,72.2,62.8,59.0,55.6,58,46,37,29.97,29.88,2,0,5,0.00
2013-7-24,96.8,88.1,72.3,65.4,62.3,57.4,68,43,31,29.94,29.81,1,0,4,0.00
2013-7-25,94.0,84.0,67.6,68.3,62.8,55.8,71,50,38,29.93,29.84,3,1,10,0.00
2013-7-26,94.1,79.1,62.1,68.0,60.8,54.3,77,55,39,30.03,29.89,2,0,6,0.00
2013-7-27,89.8,84.0,67.7,66.3,62.1,56.3,67,49,40,29.87,29.76,3,1,5,0.00
2013-7-28,87.4,75.6,60.2,64.7,59.7,52.2,78,59,45,29.82,29.71,4,1,10,0.02
2013-7-29,79.7,71.7,61.0,60.8,57.2,53.7,77,61,49,29.92,29.87,4,2,10,0.00
2013-7-30,88.2,78.2,63.1,65.6,58.9,49.2,75,53,28,30.07,29.94,1,0,5,0.00
2013-7-31,86.8,77.7,65.2,63.4,58.7,52.7,73,53,40,30.03,29.89,3,1,9,0.00